Current Conditions
Mostly Cloudy
Conditions



Pressure
1014.9 (hPa) - 29.97 (inHG)
Visibility

9.7 (km) - 6.0 (miles)
Temperature
17  °C
Temperature
15  °C
Dewpoint
88  %
 Humidity
Wind Speed
16  km/h
9  kts
10  mph
4.5  m/s
Wind Direction
N
45°
E
90°
135°
S
180°
225°
W
270°
315°
 240°

West South
West
Airport Data
EBOS
Ostend-Bruges International Airport
Metar :EBOS 161950Z 24009KT 210V270 9999 BKN016 17/15 Q1015 NOSIG
Tue 16th July 21:50 pm
Raw Metar Info
Raw METAR is the most common format in the world for the transmission of observational weather data. It is highly standardized through the International Civil Aviation Organization (ICAO), which allows it to be understood throughout most of the world.
API Info
Data Provided by
https://www.checkwx.com/weather/EBOS

Aviation Weather providing METAR, TAF, AIRMET, SIGMET and OUTLOOK Weather Reports
© Info
CSS/SVG/PHP scripts were developed by weather34 for use in the weather34 template © 2015-2024

Guide Info provided by Metar-Wikipedia